Time;durP1;ratioP1;P1;durP2;ratioP2;P2;SDS_P1;SDS_P2;PMS_P1;PMS_P2;Temp;Humidity;BMP_temperature;BMP_pressure;BME280_temperature;BME280_humidity;BME280_pressure;Samples;Min_cycle;Max_cycle;Signal;HPM_P1;HPM_P2
2022/11/25 00:02:32;;;;;;;5.30;3.95;;;19.70;56.00;;;;;;6226782;28;20481;-71
2022/11/25 00:05:32;;;;;;;4.60;3.72;;;19.70;56.00;;;;;;6220506;28;20096;-70
2022/11/25 00:08:33;;;;;;;5.57;3.95;;;19.70;55.90;;;;;;6244335;28;20052;-71
2022/11/25 00:11:38;;;;;;;4.78;3.65;;;19.70;55.90;;;;;;6232719;28;20025;-71
2022/11/25 00:14:39;;;;;;;5.25;3.83;;;19.70;56.00;;;;;;6243755;28;20026;-71
2022/11/25 00:17:39;;;;;;;5.35;3.47;;;19.70;56.00;;;;;;6227718;28;20493;-71
2022/11/25 00:20:40;;;;;;;5.45;3.70;;;19.70;55.90;;;;;;6219351;28;20113;-71
2022/11/25 00:23:40;;;;;;;5.93;4.05;;;19.70;56.00;;;;;;6243443;28;20040;-71
2022/11/25 00:26:41;;;;;;;4.88;3.50;;;19.70;56.00;;;;;;6236656;28;20026;-71
2022/11/25 00:29:42;;;;;;;6.90;4.47;;;19.70;56.00;;;;;;6219041;28;20030;-72
2022/11/25 00:32:42;;;;;;;5.05;3.72;;;19.70;56.00;;;;;;6233220;28;20562;-71
2022/11/25 00:35:43;;;;;;;4.82;3.30;;;19.70;56.00;;;;;;6244072;28;20072;-71
2022/11/25 00:38:44;;;;;;;4.57;3.60;;;19.70;56.00;;;;;;6220836;28;20081;-71
2022/11/25 00:45:05;;;;;;;5.05;3.65;;;19.70;56.00;;;;;;6243173;28;20033;-71
2022/11/25 00:48:06;;;;;;;6.47;4.18;;;19.70;56.10;;;;;;6227033;28;20278;-71
2022/11/25 00:51:06;;;;;;;4.85;3.67;;;19.70;56.40;;;;;;6219309;28;20123;-71
2022/11/25 00:54:07;;;;;;;5.03;3.63;;;19.70;56.00;;;;;;6241759;28;20045;-70
2022/11/25 00:57:07;;;;;;;5.10;3.70;;;19.70;56.00;;;;;;6236552;28;20284;-71
2022/11/25 01:00:10;;;;;;;4.63;3.45;;;19.70;56.00;;;;;;6218123;28;20366;-71
2022/11/25 01:03:10;;;;;;;5.32;3.70;;;19.70;56.10;;;;;;6232933;28;20131;-72
2022/11/25 01:06:11;;;;;;;4.70;3.53;;;19.70;56.00;;;;;;6242825;28;20507;-71
2022/11/25 01:09:12;;;;;;;5.32;3.80;;;19.70;56.00;;;;;;6233440;28;20033;-71
2022/11/25 01:12:13;;;;;;;5.65;3.80;;;19.70;56.10;;;;;;6218552;28;20473;-71
2022/11/25 01:15:13;;;;;;;5.97;3.90;;;19.70;56.00;;;;;;6218236;28;20061;-71
2022/11/25 01:18:14;;;;;;;5.20;3.80;;;19.70;56.00;;;;;;6217922;28;20477;-71
2022/11/25 01:21:21;;;;;;;5.22;3.53;;;19.70;56.10;;;;;;6218242;28;20111;-71
2022/11/25 01:24:22;;;;;;;6.40;3.67;;;19.70;56.00;;;;;;6218054;28;20388;-71
2022/11/25 01:27:22;;;;;;;5.85;3.95;;;19.70;56.00;;;;;;6221049;28;20068;-72
2022/11/25 01:30:23;;;;;;;5.50;3.92;;;19.70;56.10;;;;;;6242385;28;20026;-72
2022/11/25 01:33:24;;;;;;;3.67;3.00;;;19.60;56.10;;;;;;6230687;28;20641;-71
2022/11/25 01:36:25;;;;;;;5.43;3.25;;;19.70;56.00;;;;;;6218063;28;20025;-71
2022/11/25 01:39:26;;;;;;;6.05;3.63;;;19.70;56.00;;;;;;6237205;28;20025;-71
2022/11/25 01:42:30;;;;;;;5.35;3.60;;;19.70;56.10;;;;;;6240034;28;20022;-71
2022/11/25 01:45:37;;;;;;;5.03;3.40;;;19.70;56.10;;;;;;6218006;28;20566;-72
2022/11/25 01:48:43;;;;;;;5.15;3.78;;;19.70;56.00;;;;;;6229316;28;20561;-72
2022/11/25 01:51:51;;;;;;;5.40;3.70;;;19.70;56.10;;;;;;6242341;28;20100;-71
2022/11/25 01:55:03;;;;;;;5.85;3.75;;;19.70;56.10;;;;;;6220724;28;20107;-71
2022/11/25 01:58:11;;;;;;;5.70;3.67;;;19.70;56.10;;;;;;6223029;28;20057;-71
2022/11/25 02:01:13;;;;;;;5.75;3.78;;;19.70;56.10;;;;;;6240175;28;20484;-72
2022/11/25 02:04:16;;;;;;;5.85;3.60;;;19.70;56.20;;;;;;6227407;28;20018;-71
2022/11/25 02:07:32;;;;;;;4.72;3.15;;;19.70;56.10;;;;;;6217972;28;20022;-72
2022/11/25 02:10:34;;;;;;;4.72;3.40;;;19.70;56.10;;;;;;6217367;28;20028;-72
2022/11/25 02:13:35;;;;;;;7.32;3.78;;;19.70;56.90;;;;;;6217369;28;20026;-71
2022/11/25 02:16:36;;;;;;;3.90;3.00;;;19.70;56.20;;;;;;6218120;28;20026;-71
2022/11/25 02:19:47;;;;;;;5.88;3.80;;;19.70;56.20;;;;;;6216055;28;20163;-71
2022/11/25 02:23:06;;;;;;;5.45;3.70;;;19.70;56.20;;;;;;6217902;28;20061;-72
2022/11/25 02:26:07;;;;;;;4.32;3.13;;;19.70;56.10;;;;;;6241875;28;20507;-71
2022/11/25 02:29:08;;;;;;;5.45;3.58;;;19.70;56.10;;;;;;6230726;28;20069;-70
2022/11/25 02:32:09;;;;;;;4.85;3.42;;;19.70;56.10;;;;;;6217824;28;20469;-71
2022/11/25 02:35:29;;;;;;;4.70;3.40;;;19.70;56.10;;;;;;6235790;28;20080;-71
2022/11/25 02:38:52;;;;;;;4.90;3.53;;;19.70;56.10;;;;;;6239533;28;20036;-71
2022/11/25 02:41:57;;;;;;;4.35;3.42;;;19.70;56.20;;;;;;6221255;28;20049;-72
2022/11/25 02:44:58;;;;;;;5.47;3.45;;;19.60;56.10;;;;;;6236580;28;20457;-71
2022/11/25 02:47:58;;;;;;;5.70;3.42;;;19.70;56.20;;;;;;6242098;28;20033;-71
2022/11/25 02:50:59;;;;;;;5.13;3.65;;;19.70;56.20;;;;;;6223559;28;20022;-71
2022/11/25 02:54:00;;;;;;;4.75;3.45;;;19.70;56.20;;;;;;6227113;28;20100;-71
2022/11/25 02:57:01;;;;;;;5.22;3.55;;;19.70;56.20;;;;;;6245737;28;20524;-71
2022/11/25 03:00:03;;;;;;;4.75;3.53;;;19.60;56.10;;;;;;6232522;28;20037;-71
2022/11/25 03:03:04;;;;;;;4.40;3.40;;;19.60;56.20;;;;;;6221298;28;20500;-71
2022/11/25 03:06:05;;;;;;;5.22;3.72;;;19.60;56.20;;;;;;6241665;28;20049;-71
2022/11/25 03:09:06;;;;;;;3.95;3.03;;;19.60;56.10;;;;;;6241311;28;20036;-71
2022/11/25 03:12:18;;;;;;;5.00;3.17;;;19.60;56.20;;;;;;6244827;28;20025;-71
2022/11/25 03:15:19;;;;;;;4.38;3.38;;;19.60;56.10;;;;;;6231552;28;20477;-71
2022/11/25 03:18:19;;;;;;;4.65;3.78;;;19.60;56.10;;;;;;6220576;28;20088;-71
2022/11/25 03:21:20;;;;;;;5.05;3.35;;;19.60;56.20;;;;;;6242242;28;20044;-71
2022/11/25 03:24:21;;;;;;;4.85;3.33;;;19.60;56.20;;;;;;6240629;28;20022;-71
2022/11/25 03:27:21;;;;;;;6.63;3.90;;;19.60;56.10;;;;;;6221018;28;20026;-71
2022/11/25 03:30:25;;;;;;;4.22;3.15;;;19.60;56.20;;;;;;6232760;28;20057;-71
2022/11/25 03:33:26;;;;;;;3.80;3.20;;;19.60;56.20;;;;;;6245401;28;20049;-71
2022/11/25 03:36:27;;;;;;;5.20;3.75;;;19.60;56.20;;;;;;6224393;28;20045;-72
2022/11/25 03:39:27;;;;;;;4.57;3.28;;;19.60;56.20;;;;;;6223643;28;20021;-71
2022/11/25 03:42:28;;;;;;;4.75;3.33;;;19.60;56.20;;;;;;6243925;28;20068;-71
2022/11/25 03:45:28;;;;;;;4.55;3.42;;;19.60;56.20;;;;;;6233639;28;20427;-71
2022/11/25 03:48:29;;;;;;;4.70;3.47;;;19.60;56.30;;;;;;6219678;28;20517;-70
2022/11/25 03:51:30;;;;;;;4.60;3.05;;;19.60;56.20;;;;;;6237911;28;20022;-71
2022/11/25 03:54:30;;;;;;;4.47;3.22;;;19.60;56.30;;;;;;6242476;28;20049;-71
2022/11/25 03:57:32;;;;;;;5.00;3.30;;;19.60;56.20;;;;;;6220448;28;20194;-71
2022/11/25 04:00:32;;;;;;;4.22;3.20;;;19.60;56.30;;;;;;6229500;28;20112;-71
2022/11/25 04:03:33;;;;;;;5.80;3.50;;;19.60;56.30;;;;;;6244242;28;20036;-71
2022/11/25 04:06:34;;;;;;;4.47;3.17;;;19.60;56.30;;;;;;6227116;28;20029;-71
2022/11/25 04:09:34;;;;;;;4.47;3.03;;;19.60;56.30;;;;;;6222378;28;20373;-71
2022/11/25 04:12:47;;;;;;;4.03;3.15;;;19.60;56.30;;;;;;6219544;28;20101;-71
2022/11/25 04:15:49;;;;;;;4.82;3.08;;;19.60;56.30;;;;;;6229323;28;20321;-70
2022/11/25 04:18:50;;;;;;;3.50;2.83;;;19.60;56.30;;;;;;6244148;28;20040;-71
2022/11/25 04:21:50;;;;;;;3.42;2.60;;;19.60;56.30;;;;;;6226109;28;20069;-71
2022/11/25 04:24:51;;;;;;;4.22;3.30;;;19.60;56.30;;;;;;6219086;28;20033;-71
2022/11/25 04:27:52;;;;;;;4.93;3.75;;;19.60;56.30;;;;;;6218876;28;20400;-71
2022/11/25 04:30:53;;;;;;;3.97;2.95;;;19.60;56.30;;;;;;6228375;28;20544;-71
2022/11/25 04:33:53;;;;;;;4.72;3.25;;;19.60;56.30;;;;;;6245424;28;20041;-72
2022/11/25 04:36:54;;;;;;;4.15;3.35;;;19.60;56.30;;;;;;6245463;28;20033;-71
2022/11/25 04:39:54;;;;;;;4.28;3.05;;;19.60;56.30;;;;;;6243877;28;20018;-71
2022/11/25 04:42:55;;;;;;;4.47;3.22;;;19.60;56.30;;;;;;6220105;28;20146;-71
2022/11/25 04:45:56;;;;;;;5.05;3.25;;;19.60;56.30;;;;;;6225810;28;20021;-71
2022/11/25 04:48:56;;;;;;;5.13;3.50;;;19.60;56.30;;;;;;6243616;28;20087;-72
2022/11/25 04:51:57;;;;;;;4.57;3.22;;;19.60;57.00;;;;;;6229002;28;20500;-71
2022/11/25 04:54:58;;;;;;;4.00;3.00;;;19.60;56.30;;;;;;6218540;28;20056;-71
2022/11/25 04:57:59;;;;;;;5.25;3.30;;;19.60;56.30;;;;;;6240442;28;20036;-72
2022/11/25 05:01:00;;;;;;;5.57;3.55;;;19.60;56.30;;;;;;6237973;28;20028;-71
2022/11/25 05:04:00;;;;;;;4.55;3.13;;;19.60;56.30;;;;;;6219004;28;20485;-72
2022/11/25 05:07:01;;;;;;;3.53;2.63;;;19.60;56.30;;;;;;6231335;28;20026;-71
2022/11/25 05:10:02;;;;;;;3.47;2.80;;;19.60;56.30;;;;;;6235641;28;20491;-71
2022/11/25 05:13:02;;;;;;;3.88;3.00;;;19.60;56.40;;;;;;6238868;28;20056;-71
2022/11/25 05:16:03;;;;;;;3.92;3.03;;;19.60;56.30;;;;;;6238889;28;20022;-71
2022/11/25 05:19:03;;;;;;;4.03;2.90;;;19.60;56.30;;;;;;6218991;28;20105;-71
2022/11/25 05:22:04;;;;;;;4.60;3.25;;;19.60;56.30;;;;;;6229651;28;20025;-72
2022/11/25 05:25:05;;;;;;;4.18;3.28;;;19.60;56.30;;;;;;6242830;28;20025;-72
2022/11/25 05:28:06;;;;;;;4.97;3.53;;;19.60;56.30;;;;;;6223511;28;20318;-71
2022/11/25 05:31:06;;;;;;;4.40;3.00;;;19.60;56.30;;;;;;6219868;28;20032;-72
2022/11/25 05:34:07;;;;;;;4.15;2.92;;;19.60;56.30;;;;;;6242156;28;20106;-71
2022/11/25 05:37:11;;;;;;;4.18;2.85;;;19.60;56.30;;;;;;6233224;28;20076;-71
2022/11/25 05:40:12;;;;;;;4.30;2.87;;;19.60;56.30;;;;;;6218545;28;20053;-71
2022/11/25 05:43:13;;;;;;;4.45;3.15;;;19.60;56.30;;;;;;6235527;28;20032;-71
2022/11/25 05:46:14;;;;;;;3.78;2.97;;;19.60;56.30;;;;;;6241532;28;20245;-71
2022/11/25 05:49:15;;;;;;;4.57;3.10;;;19.60;56.30;;;;;;6217998;28;20111;-72
2022/11/25 05:52:16;;;;;;;4.40;2.83;;;19.60;56.30;;;;;;6225675;28;20029;-71
2022/11/25 05:55:16;;;;;;;3.92;3.08;;;19.60;56.30;;;;;;6241158;28;20038;-71
2022/11/25 05:58:17;;;;;;;4.40;2.97;;;19.60;56.30;;;;;;6225533;28;20052;-71
2022/11/25 06:01:18;;;;;;;4.70;3.08;;;19.60;56.90;;;;;;6217423;28;20026;-70
2022/11/25 06:04:18;;;;;;;3.95;3.00;;;19.60;56.30;;;;;;6241454;28;20082;-71
2022/11/25 06:07:19;;;;;;;3.70;2.95;;;19.60;56.30;;;;;;6235176;28;20092;-71
2022/11/25 06:10:19;;;;;;;4.05;3.10;;;19.60;56.30;;;;;;6225964;28;20022;-71
2022/11/25 06:13:21;;;;;;;3.47;2.63;;;19.60;56.30;;;;;;6228584;28;20495;-71
2022/11/25 06:16:22;;;;;;;4.18;2.90;;;19.60;56.30;;;;;;6221950;28;20033;-70
2022/11/25 06:19:22;;;;;;;4.25;2.95;;;19.60;56.30;;;;;;6244389;28;20485;-71
2022/11/25 06:22:23;;;;;;;3.72;2.60;;;19.60;56.30;;;;;;6241369;28;20378;-71
2022/11/25 06:25:24;;;;;;;3.95;2.75;;;19.60;56.30;;;;;;6222260;28;20025;-71
2022/11/25 06:28:25;;;;;;;4.38;2.83;;;19.60;56.30;;;;;;6222321;28;20109;-71
2022/11/25 06:31:26;;;;;;;3.58;2.83;;;19.60;56.30;;;;;;6221713;28;20104;-71
2022/11/25 06:34:26;;;;;;;4.20;3.08;;;19.60;56.30;;;;;;6242746;28;20045;-70
2022/11/25 06:37:27;;;;;;;3.30;2.40;;;19.60;56.30;;;;;;6241643;28;20057;-71
2022/11/25 06:40:27;;;;;;;4.45;3.03;;;19.60;56.30;;;;;;6222262;28;20026;-71
2022/11/25 06:43:29;;;;;;;3.88;3.10;;;19.60;56.30;;;;;;6232893;28;20587;-71
2022/11/25 06:46:30;;;;;;;4.18;2.95;;;19.60;56.30;;;;;;6246133;28;20530;-71
2022/11/25 06:49:30;;;;;;;3.47;2.65;;;19.60;56.30;;;;;;6226789;28;20026;-71
2022/11/25 06:52:31;;;;;;;3.42;2.80;;;19.60;56.30;;;;;;6224057;28;20054;-72
2022/11/25 06:55:32;;;;;;;4.25;2.90;;;19.60;56.30;;;;;;6245852;28;20503;-71
2022/11/25 06:58:34;;;;;;;3.17;2.60;;;19.60;56.30;;;;;;6235337;28;20071;-71
2022/11/25 07:01:34;;;;;;;3.97;2.67;;;19.60;56.90;;;;;;6233493;28;20022;-70
2022/11/25 07:04:35;;;;;;;4.03;2.80;;;19.60;56.30;;;;;;6229019;28;20099;-71
2022/11/25 07:07:36;;;;;;;3.70;2.70;;;19.60;56.30;;;;;;6223914;28;20057;-72
2022/11/25 07:10:36;;;;;;;4.13;2.90;;;19.60;56.30;;;;;;6236260;28;20026;-70
2022/11/25 07:13:37;;;;;;;4.88;2.70;;;19.60;56.30;;;;;;6231359;28;20022;-71
2022/11/25 07:16:40;;;;;;;3.50;2.60;;;19.60;56.20;;;;;;6247579;28;20029;-71
2022/11/25 07:19:40;;;;;;;5.63;3.00;;;19.60;56.30;;;;;;6230791;28;20385;-71
2022/11/25 07:22:41;;;;;;;4.65;2.97;;;19.60;56.30;;;;;;6223326;28;20041;-71
2022/11/25 07:25:41;;;;;;;4.25;2.80;;;19.60;56.30;;;;;;6246976;28;20438;-71
2022/11/25 07:28:42;;;;;;;4.72;2.80;;;19.60;56.30;;;;;;6240485;28;20560;-71
2022/11/25 07:31:44;;;;;;;4.57;2.38;;;19.60;56.30;;;;;;6222283;28;20021;-71
2022/11/25 07:34:45;;;;;;;3.88;2.38;;;19.60;56.30;;;;;;6238069;28;20030;-71
2022/11/25 07:37:45;;;;;;;4.43;2.90;;;19.60;56.30;;;;;;6247051;28;20044;-72
2022/11/25 07:40:46;;;;;;;4.05;2.85;;;19.60;56.30;;;;;;6224936;28;20030;-71
2022/11/25 07:43:52;;;;;;;4.50;2.97;;;19.60;56.30;;;;;;6227482;28;20487;-71
2022/11/25 07:46:53;;;;;;;4.70;3.00;;;19.60;56.30;;;;;;6246980;28;20080;-71
2022/11/25 07:49:53;;;;;;;4.03;2.80;;;19.60;56.30;;;;;;6232765;28;20022;-71
2022/11/25 07:52:54;;;;;;;4.60;2.90;;;19.60;56.30;;;;;;6222019;28;20513;-71
2022/11/25 07:55:55;;;;;;;4.00;2.80;;;19.60;56.30;;;;;;6242641;28;20060;-70
2022/11/25 07:58:56;;;;;;;4.38;2.90;;;19.60;56.30;;;;;;6241249;28;20068;-71
2022/11/25 08:01:57;;;;;;;5.40;3.15;;;19.60;56.30;;;;;;6222144;28;20551;-71
2022/11/25 08:04:57;;;;;;;3.72;2.60;;;19.60;56.30;;;;;;6234281;28;20029;-71
2022/11/25 08:07:58;;;;;;;4.95;3.10;;;19.60;56.30;;;;;;6246564;28;20555;-72
2022/11/25 08:10:58;;;;;;;4.85;3.20;;;19.60;56.30;;;;;;6225742;28;20022;-71
2022/11/25 08:13:59;;;;;;;3.70;2.80;;;19.60;56.20;;;;;;6223985;28;20050;-71
2022/11/25 08:17:02;;;;;;;4.50;3.05;;;19.60;56.20;;;;;;6246317;28;20028;-71
2022/11/25 08:20:03;;;;;;;5.30;3.28;;;19.60;56.30;;;;;;6235264;28;20034;-71
2022/11/25 08:23:03;;;;;;;3.90;2.60;;;19.60;56.30;;;;;;6221839;28;20527;-71
2022/11/25 08:26:10;;;;;;;4.13;2.88;;;19.60;56.20;;;;;;6240230;28;20033;-71
2022/11/25 08:29:14;;;;;;;5.40;2.92;;;19.60;56.20;;;;;;6243390;28;20476;-71
2022/11/25 08:32:14;;;;;;;5.15;3.03;;;19.60;56.20;;;;;;6221519;28;20022;-72
2022/11/25 08:35:15;;;;;;;4.05;3.08;;;19.60;56.20;;;;;;6232191;28;20029;-71
2022/11/25 08:38:16;;;;;;;3.90;2.80;;;19.60;56.20;;;;;;6245760;28;20056;-71
2022/11/25 08:41:23;;;;;;;4.05;3.08;;;19.70;56.20;;;;;;6226907;28;20048;-71
2022/11/25 08:44:27;;;;;;;4.78;3.20;;;19.70;56.20;;;;;;6223513;28;20129;-71
2022/11/25 08:47:27;;;;;;;3.75;2.97;;;19.60;56.20;;;;;;6245270;28;20022;-72
2022/11/25 08:50:28;;;;;;;5.43;3.25;;;19.60;56.20;;;;;;6234882;28;20457;-72
2022/11/25 08:53:28;;;;;;;4.50;3.08;;;19.70;56.30;;;;;;6220534;28;20310;-71
2022/11/25 08:56:29;;;;;;;4.15;2.88;;;19.60;56.20;;;;;;6239249;28;20065;-72
2022/11/25 08:59:30;;;;;;;4.30;2.90;;;19.70;56.20;;;;;;6242420;28;20274;-71
2022/11/25 09:02:31;;;;;;;4.22;2.75;;;19.60;56.20;;;;;;6221188;28;20033;-71
2022/11/25 09:05:34;;;;;;;4.18;2.75;;;19.60;56.20;;;;;;6229408;28;20891;-71
2022/11/25 09:08:36;;;;;;;4.65;3.17;;;19.60;56.20;;;;;;6245419;28;20064;-71
2022/11/25 09:11:37;;;;;;;4.20;2.75;;;19.70;56.20;;;;;;6242118;28;20484;-71
2022/11/25 09:14:39;;;;;;;4.95;3.28;;;19.60;56.20;;;;;;6244058;28;20102;-72
2022/11/25 09:17:39;;;;;;;5.70;3.15;;;19.60;56.20;;;;;;6219924;28;20101;-71
2022/11/25 09:20:40;;;;;;;4.60;3.13;;;19.70;56.20;;;;;;6228678;28;20028;-71
2022/11/25 09:23:41;;;;;;;4.95;3.38;;;19.70;56.20;;;;;;6244920;28;20460;-71
2022/11/25 09:26:43;;;;;;;4.07;3.15;;;19.70;56.30;;;;;;6229152;28;20030;-72
2022/11/25 09:29:44;;;;;;;4.75;3.38;;;19.70;56.20;;;;;;6220266;28;20595;-71
2022/11/25 09:32:48;;;;;;;4.60;2.90;;;19.70;56.20;;;;;;6243803;28;20021;-71
2022/11/25 09:35:49;;;;;;;6.55;3.38;;;19.70;56.20;;;;;;6236269;28;20018;-71
2022/11/25 09:38:50;;;;;;;5.15;3.30;;;19.70;56.20;;;;;;6219723;28;20084;-72
2022/11/25 09:49:32;;;;;;;4.50;3.28;;;19.70;56.30;;;;;;6222497;28;20042;-71
2022/11/25 09:52:59;;;;;;;5.00;3.30;;;19.60;56.20;;;;;;6243922;28;20053;-72
2022/11/25 09:56:10;;;;;;;5.20;3.28;;;19.70;56.30;;;;;;6243263;28;20018;-71
2022/11/25 09:59:41;;;;;;;4.65;3.30;;;19.60;56.30;;;;;;6224735;28;20097;-70
2022/11/25 10:03:06;;;;;;;5.05;3.25;;;19.70;56.30;;;;;;6244164;28;20408;-71
2022/11/25 10:06:28;;;;;;;5.65;3.60;;;19.60;56.20;;;;;;6243602;28;20028;-72
2022/11/25 10:09:32;;;;;;;6.35;3.72;;;19.70;56.30;;;;;;6227062;28;20093;-71
2022/11/25 10:12:39;;;;;;;6.80;3.55;;;19.60;56.30;;;;;;6232607;28;20436;-71
2022/11/25 10:15:45;;;;;;;5.35;3.42;;;19.60;56.30;;;;;;6225478;28;20145;-71
2022/11/25 10:18:58;;;;;;;4.30;3.28;;;19.70;56.30;;;;;;6248700;28;20511;-72
2022/11/25 10:22:24;;;;;;;5.35;3.75;;;19.60;56.30;;;;;;6238419;28;20420;-71
2022/11/25 10:25:28;;;;;;;4.88;3.58;;;19.70;56.40;;;;;;6224501;28;20109;-71
2022/11/25 10:28:31;;;;;;;6.13;4.03;;;19.60;56.30;;;;;;6246189;28;20090;-71
2022/11/25 10:31:35;;;;;;;5.05;3.10;;;19.60;56.30;;;;;;6229626;28;20030;-72
2022/11/25 10:34:44;;;;;;;5.88;3.25;;;19.60;56.30;;;;;;6246566;28;20029;-71
2022/11/25 10:37:47;;;;;;;5.25;3.22;;;19.60;56.30;;;;;;6233203;28;20092;-71
2022/11/25 10:40:51;;;;;;;4.80;3.30;;;19.70;56.40;;;;;;6224362;28;20421;-72
2022/11/25 10:43:51;;;;;;;5.35;3.45;;;19.70;56.40;;;;;;6246801;28;20024;-71
2022/11/25 10:47:21;;;;;;;5.60;3.17;;;19.70;56.40;;;;;;6242480;28;20255;-71
2022/11/25 10:50:53;;;;;;;6.15;3.60;;;19.70;56.40;;;;;;6205841;28;20069;-71
2022/11/25 10:54:10;;;;;;;6.18;3.08;;;19.60;56.30;;;;;;6220310;28;20050;-71
2022/11/25 10:57:19;;;;;;;4.72;3.28;;;19.60;56.30;;;;;;6235177;28;20026;-71
2022/11/25 11:00:32;;;;;;;5.05;3.33;;;19.60;56.40;;;;;;6223159;28;20033;-72
2022/11/25 11:03:33;;;;;;;5.30;3.45;;;19.70;56.40;;;;;;6223311;28;20029;-71
2022/11/25 11:06:35;;;;;;;5.63;3.80;;;19.70;56.40;;;;;;6223567;28;20054;-71
2022/11/25 11:09:42;;;;;;;6.45;3.35;;;19.70;56.40;;;;;;6241358;28;20019;-71
2022/11/25 11:13:20;;;;;;;5.30;2.95;;;19.70;56.40;;;;;;6229501;28;20025;-71
2022/11/25 11:16:29;;;;;;;7.53;3.58;;;19.70;56.40;;;;;;6220023;28;20037;-71
2022/11/25 11:19:30;;;;;;;6.70;3.70;;;19.70;56.40;;;;;;6245689;28;20033;-71
2022/11/25 11:22:32;;;;;;;7.43;3.53;;;19.70;56.40;;;;;;6239356;28;20053;-70
2022/11/25 11:25:38;;;;;;;5.97;3.80;;;19.70;56.40;;;;;;6220787;28;20028;-71
2022/11/25 11:28:40;;;;;;;6.20;3.80;;;19.70;56.40;;;;;;6222308;28;20048;-71
2022/11/25 11:31:48;;;;;;;6.10;3.67;;;19.70;56.40;;;;;;6222040;28;20415;-71
2022/11/25 11:35:25;;;;;;;6.07;3.80;;;19.60;56.30;;;;;;6222287;28;20014;-71
2022/11/25 11:38:25;;;;;;;5.85;3.20;;;19.60;56.30;;;;;;6211948;28;20427;-71
2022/11/25 11:41:55;;;;;;;6.22;3.55;;;19.70;56.50;;;;;;6229679;28;20030;-71
2022/11/25 11:45:23;;;;;;;7.38;3.70;;;19.70;56.50;;;;;;6240753;28;20029;-70
2022/11/25 11:48:49;;;;;;;7.00;3.80;;;19.70;56.70;;;;;;6232021;28;20014;-71
2022/11/25 11:51:54;;;;;;;;;;;19.70;56.40;;;;;;6226713;28;20026;-69
2022/11/25 11:55:10;;;;;;;6.07;3.40;;;19.70;56.20;;;;;;6242902;28;19920;-70
2022/11/25 11:58:23;;;;;;;6.80;3.75;;;19.70;56.30;;;;;;6241635;28;20037;-70
2022/11/25 12:01:34;;;;;;;7.43;4.15;;;19.80;56.50;;;;;;6246119;28;20086;-70
2022/11/25 12:04:41;;;;;;;5.45;3.50;;;19.70;56.30;;;;;;6227972;28;20539;-71
2022/11/25 12:07:51;;;;;;;5.45;3.60;;;19.70;56.30;;;;;;6223510;28;20393;-71
2022/11/25 12:11:03;;;;;;;5.97;3.67;;;19.70;56.40;;;;;;6239711;28;20088;-70
2022/11/25 12:14:43;;;;;;;6.03;3.63;;;19.70;56.50;;;;;;6233352;28;20109;-71
2022/11/25 12:17:52;;;;;;;8.18;3.17;;;19.70;56.50;;;;;;6221912;28;20038;-71
2022/11/25 12:21:02;;;;;;;5.38;3.40;;;19.70;56.50;;;;;;6237867;28;20099;-71
2022/11/25 12:24:14;;;;;;;8.18;3.75;;;19.70;56.50;;;;;;6230923;28;20045;-71
2022/11/25 12:27:20;;;;;;;4.85;3.25;;;19.70;56.50;;;;;;6220560;28;20037;-71
2022/11/25 12:30:47;;;;;;;5.93;3.80;;;19.70;56.50;;;;;;6241818;28;20100;-71
2022/11/25 12:33:57;;;;;;;8.73;4.70;;;19.70;56.60;;;;;;6245109;28;20551;-71
2022/11/25 12:37:07;;;;;;;13.52;5.53;;;19.70;56.50;;;;;;6245194;28;20103;-71
2022/11/25 12:40:19;;;;;;;5.45;3.75;;;19.70;56.00;;;;;;6227586;28;20168;-71
2022/11/25 12:44:04;;;;;;;11.98;4.28;;;19.70;56.40;;;;;;6219090;28;20064;-70
2022/11/25 12:47:09;;;;;;;6.88;4.20;;;19.70;56.40;;;;;;6176947;28;20018;-71
2022/11/25 12:50:24;;;;;;;;;;;19.70;56.50;;;;;;6221408;28;20026;-71
2022/11/25 12:53:49;;;;;;;6.15;4.03;;;19.60;56.50;;;;;;6221524;28;19921;-71
2022/11/25 12:57:17;;;;;;;9.05;4.78;;;19.70;56.50;;;;;;6238232;28;20042;-71
2022/11/25 13:00:24;;;;;;;6.78;4.43;;;19.70;56.50;;;;;;6221910;28;20351;-71
2022/11/25 13:03:49;;;;;;;7.00;4.18;;;19.70;56.50;;;;;;6221784;28;20018;-71
2022/11/25 13:07:15;;;;;;;9.80;5.13;;;19.70;56.50;;;;;;6240394;28;20076;-71
2022/11/25 13:10:30;;;;;;;7.55;4.32;;;19.70;56.50;;;;;;6227247;28;20067;-71
2022/11/25 13:13:45;;;;;;;6.65;4.35;;;19.70;56.50;;;;;;6239865;28;20686;-71
2022/11/25 13:16:47;;;;;;;9.87;5.57;;;19.70;56.60;;;;;;6225695;28;20021;-71
2022/11/25 13:19:48;;;;;;;13.93;6.78;;;19.70;56.40;;;;;;6236720;28;20040;-71
2022/11/25 13:23:03;;;;;;;9.27;5.60;;;19.70;56.00;;;;;;6220980;28;20354;-71
2022/11/25 13:26:22;;;;;;;;;;;19.70;55.90;;;;;;6240952;28;20025;-71
2022/11/25 13:29:23;;;;;;;11.70;5.65;;;19.70;56.00;;;;;;6241425;28;20309;-71
2022/11/25 13:32:36;;;;;;;9.68;5.75;;;19.70;56.00;;;;;;6221702;28;20022;-71
2022/11/25 13:35:48;;;;;;;9.88;6.00;;;19.60;56.20;;;;;;6235521;28;20223;-71
2022/11/25 13:38:49;;;;;;;10.38;6.18;;;19.60;56.20;;;;;;6228049;28;20034;-71
2022/11/25 13:41:58;;;;;;;10.65;6.15;;;19.60;56.20;;;;;;6217236;28;20380;-70
2022/11/25 13:44:59;;;;;;;9.40;6.05;;;19.60;56.00;;;;;;6238289;28;20054;-70
2022/11/25 13:48:05;;;;;;;11.73;5.70;;;19.60;56.20;;;;;;6221269;28;20100;-70
2022/11/25 13:51:23;;;;;;;11.13;5.68;;;19.70;56.30;;;;;;6209798;28;20477;-70
2022/11/25 13:54:52;;;;;;;9.55;5.43;;;19.70;56.30;;;;;;6222280;28;20046;-69
2022/11/25 13:58:02;;;;;;;12.63;5.70;;;19.70;56.20;;;;;;6244802;28;20041;-70
2022/11/25 14:01:20;;;;;;;8.65;5.38;;;19.70;56.10;;;;;;6231287;28;20022;-70
2022/11/25 14:04:56;;;;;;;8.73;5.90;;;19.70;56.20;;;;;;6220805;28;20112;-70
2022/11/25 14:08:15;;;;;;;;;;;19.70;56.20;;;;;;6186321;28;20060;-70
2022/11/25 14:11:40;;;;;;;12.00;5.90;;;19.70;56.20;;;;;;6235023;28;19905;-69
2022/11/25 14:15:01;;;;;;;14.30;5.85;;;19.70;56.30;;;;;;6224635;28;20109;-70
2022/11/25 14:18:22;;;;;;;10.93;5.80;;;19.70;56.30;;;;;;6220557;28;20045;-70
2022/11/25 14:21:44;;;;;;;8.63;5.53;;;19.60;56.20;;;;;;6231105;28;20022;-70
2022/11/25 14:24:49;;;;;;;10.38;5.57;;;19.70;56.40;;;;;;6244482;28;20392;-69
2022/11/25 14:27:56;;;;;;;8.13;5.28;;;19.70;56.30;;;;;;6220782;28;20475;-70
2022/11/25 14:31:04;;;;;;;7.57;5.05;;;19.70;56.40;;;;;;6219116;28;20032;-70
2022/11/25 14:34:16;;;;;;;9.77;5.18;;;19.70;56.40;;;;;;6227405;28;20029;-71
2022/11/25 14:37:46;;;;;;;8.38;5.35;;;19.70;56.40;;;;;;6229690;28;20018;-70
2022/11/25 14:40:55;;;;;;;12.45;5.88;;;19.60;56.30;;;;;;6226432;28;20033;-70
2022/11/25 14:44:11;;;;;;;13.48;5.43;;;19.70;56.40;;;;;;6248705;28;20615;-70
2022/11/25 14:47:11;;;;;;;8.52;5.50;;;19.70;56.40;;;;;;6230700;28;20358;-70
2022/11/25 14:50:14;;;;;;;7.80;5.25;;;19.70;56.40;;;;;;6223593;28;20034;-70
2022/11/25 14:53:14;;;;;;;6.68;4.38;;;19.70;56.50;;;;;;6245359;28;20171;-71
2022/11/25 14:56:31;;;;;;;10.75;5.30;;;19.70;56.50;;;;;;6238377;28;20417;-70
2022/11/25 14:59:33;;;;;;;10.45;5.53;;;19.60;56.40;;;;;;6221682;28;20045;-70
2022/11/25 15:02:38;;;;;;;7.38;4.68;;;19.70;56.50;;;;;;6240862;28;20115;-71
2022/11/25 15:05:39;;;;;;;11.57;5.40;;;19.70;56.50;;;;;;6227802;28;20401;-70
2022/11/25 15:08:43;;;;;;;8.85;4.88;;;19.70;56.50;;;;;;6243335;28;20025;-70
2022/11/25 15:11:44;;;;;;;7.40;5.30;;;19.70;56.50;;;;;;6232209;28;20049;-70
2022/11/25 15:14:53;;;;;;;8.75;4.18;;;19.70;56.60;;;;;;6221519;28;20172;-70
2022/11/25 15:17:54;;;;;;;11.80;5.47;;;19.60;56.50;;;;;;6239896;28;20040;-70
2022/11/25 15:20:58;;;;;;;8.23;5.35;;;19.70;56.60;;;;;;6227083;28;20029;-70
2022/11/25 15:23:59;;;;;;;7.80;4.85;;;19.70;56.50;;;;;;6240073;28;20108;-70
2022/11/25 15:27:01;;;;;;;7.97;5.18;;;19.70;56.50;;;;;;6235352;28;20030;-69
2022/11/25 15:30:18;;;;;;;7.97;4.88;;;19.70;56.60;;;;;;6221259;28;20029;-70
2022/11/25 15:33:19;;;;;;;7.57;4.90;;;19.70;56.60;;;;;;6241280;28;20484;-70
2022/11/25 15:36:22;;;;;;;7.70;4.80;;;19.70;56.60;;;;;;6242909;28;20022;-70
2022/11/25 15:39:26;;;;;;;14.63;5.25;;;19.60;56.60;;;;;;6220912;28;20096;-70
2022/11/25 15:42:27;;;;;;;14.85;4.90;;;19.70;56.60;;;;;;6221196;28;20026;-70
2022/11/25 15:45:45;;;;;;;8.55;4.88;;;19.60;56.60;;;;;;6219944;28;20061;-70
2022/11/25 15:48:48;;;;;;;5.65;4.32;;;19.70;56.60;;;;;;6242106;28;20022;-70
2022/11/25 15:52:08;;;;;;;6.97;4.97;;;19.70;56.60;;;;;;6240398;28;20084;-70
2022/11/25 15:55:30;;;;;;;6.65;4.65;;;19.70;56.70;;;;;;6219609;28;20054;-70
2022/11/25 15:58:30;;;;;;;6.68;4.30;;;19.70;56.60;;;;;;6238273;28;20095;-70
2022/11/25 16:01:31;;;;;;;10.65;4.82;;;19.70;56.70;;;;;;6243854;28;20018;-70
2022/11/25 16:04:32;;;;;;;10.25;5.63;;;19.70;56.60;;;;;;6220344;28;20057;-70
2022/11/25 16:07:33;;;;;;;12.80;4.97;;;19.70;56.60;;;;;;6229233;28;20033;-70
2022/11/25 16:10:50;;;;;;;7.85;5.22;;;19.60;56.60;;;;;;6231994;28;20029;-69
2022/11/25 16:13:52;;;;;;;7.97;4.72;;;19.70;56.70;;;;;;6239115;28;20427;-69
2022/11/25 16:17:02;;;;;;;8.93;5.05;;;19.70;56.60;;;;;;6242218;28;20489;-70
2022/11/25 16:20:03;;;;;;;7.43;4.60;;;19.60;56.60;;;;;;6220593;28;20030;-70